• Join FlightAware (Why Join?)
  • Login
  • US Flag 
01:51PM EDT


 

Airport Tracker/Info


-or-


 

Live Flight TrackerFlight Track Log ✈ N75ZM ✈ 16-May-2013 ✈ KPDK - KTLH

Flight Track Log - Related Links

Times and Time Zones

All times are in EDT time to prevent confusion due to time zone crossing. See the N75ZM flight status page for this flight to view local times or setup timezone preferences in your user account.

Time Position Orientation Groundspeed Altitude Reporting Facility
EDT Latitude Longitude Course Direction KTS MPH feet Rate Location/Type
07:13AM 33.9000 -84.3000 360° North 112 129 2,100  Level Atlanta TRACON
07:14AM 33.9333 -84.3000 360° North 110 127 3,000 900 Climbing Atlanta TRACON
07:15AM 33.9333 -84.3167 270° West 110 127 3,900 900 Climbing Atlanta TRACON
07:16AM 33.9167 -84.3500 239° Southwest 106 122 4,900 360 Climbing Atlanta TRACON
07:18AM 33.8500 -84.3833 203° Southwest 161 185 5,100  Climbing Atlanta TRACON
07:20AM 33.7876 -84.3417 151° Southeast  Level FlightAware Approximate
07:23AM 33.6167 -84.4000 188° South 174 200 5,100  Level Atlanta TRACON
07:24AM 33.5833 -84.4000 180° South 161 185 5,100  Level Atlanta TRACON
07:25AM 33.5333 -84.4000 180° South 160 184 5,100  Level Atlanta TRACON
07:26AM 33.4833 -84.4000 180° South 160 184 5,100  Level Atlanta TRACON
07:27AM 33.4995 -84.3425 187° South  Level Estimated
07:28AM 33.4587 -84.3490 188° South  Level FlightAware Approximate
07:28AM 33.4000 -84.4000 180° South 162 186 5,200  Level Atlanta TRACON
07:29AM 33.3500 -84.4000 180° South 156 180 5,400 480 Climbing Atlanta TRACON
07:30AM 33.3167 -84.4000 180° South 126 145 6,200 600 Climbing Atlanta TRACON
07:32AM 33.2500 -84.4000 180° South 130 150 7,300 600 Climbing Atlanta TRACON
07:33AM 33.2000 -84.4000 180° South 127 146 8,100 360 Climbing Atlanta TRACON
07:34AM 33.1667 -84.4000 180° South 139 160 8,100  Level Atlanta TRACON
07:35AM 33.1333 -84.4000 180° South 160 184 8,200  Climbing Atlanta TRACON
07:37AM 33.0634 -84.4117 188° South  Level FlightAware Approximate
07:39AM 32.9500 -84.4000 180° South 160 184 8,100  Level Atlanta TRACON
07:41AM 32.8667 -84.4000 180° South 156 180 8,100  Level Atlanta TRACON
07:42AM 32.8167 -84.4000 180° South 160 184 8,100  Level Atlanta TRACON
07:43AM 32.7833 -84.3833 157° South 156 180 8,100  Level Atlanta TRACON
07:44AM 32.7796 -84.3667 180° South  Level FlightAware Approximate
07:44AM 32.7333 -84.3833 180° South 157 181 8,100  Level Atlanta TRACON
07:45AM 32.6833 -84.3833 180° South 153 176 8,100  Level Atlanta TRACON
07:46AM 32.6500 -84.3833 180° South 150 173 8,100  Level Atlanta TRACON
07:47AM 32.6000 -84.3833 180° South 149 171 8,100  Level Atlanta TRACON
07:48AM 32.5667 -84.3833 180° South 151 174 8,100  Level Atlanta TRACON
07:49AM 32.5167 -84.3833 180° South 147 169 8,100  Level Atlanta TRACON
07:50AM 32.4833 -84.3833 180° South 147 169 8,100  Level Atlanta TRACON
07:51AM 32.4333 -84.3833 180° South 149 171 8,100  Level Atlanta TRACON
07:52AM 32.4000 -84.3833 180° South 147 169 8,100  Level Atlanta TRACON
07:53AM 32.3667 -84.3833 180° South 151 174 8,100  Level Atlanta TRACON
07:54AM 32.3144 -84.3847 181° South 155 178 8,100  Level Jacksonville Center
07:55AM 32.2706 -84.3814 176° South 160 184 8,100  Level Jacksonville Center
07:56AM 32.2289 -84.3808 179° South 160 184 8,100  Level Jacksonville Center
07:57AM 32.1850 -84.3803 179° South 160 184 8,100  Level Jacksonville Center
07:58AM 32.1433 -84.3794 179° South 160 184 8,100  Level Jacksonville Center
07:59AM 32.0972 -84.3811 182° South 160 184 8,100  Level Jacksonville Center
08:00AM 32.0533 -84.3781 177° South 160 184 8,100  Level Jacksonville Center
08:01AM 32.0117 -84.3772 179° South 160 184 8,100  Level Jacksonville Center
08:02AM 31.9678 -84.3792 182° South 160 184 8,100  Level Jacksonville Center
08:03AM 31.9239 -84.3783 179° South 160 184 8,100  Level Jacksonville Center
08:04AM 31.8803 -84.3753 177° South 160 184 8,100  Level Jacksonville Center
08:05AM 31.8364 -84.3744 179° South 160 184 8,100  Level Jacksonville Center
08:06AM 31.7925 -84.3764 182° South 160 184 8,100  Level Jacksonville Center
08:07AM 31.7508 -84.3731 176° South 160 184 8,100  Level Jacksonville Center
08:08AM 31.7069 -84.3725 179° South 160 184 8,100  Level Jacksonville Center
08:09AM 31.6653 -84.3717 179° South 160 184 8,100  Level Jacksonville Center
08:10AM 31.6214 -84.3711 179° South 160 184 8,100  Level Jacksonville Center
08:11AM 31.5775 -84.3703 179° South 160 184 8,100  Level Jacksonville Center
08:12AM 31.5336 -84.3697 179° South 160 184 8,100  Level Jacksonville Center
08:13AM 31.4919 -84.3667 176° South 160 184 8,100  Level Jacksonville Center
08:14AM 31.4481 -84.3658 179° South 160 184 8,100  Level Jacksonville Center
08:15AM 31.4042 -84.3653 179° South 160 184 8,100  Level Jacksonville Center
08:16AM 31.3603 -84.3669 182° South 160 184 8,100  Level Jacksonville Center
08:17AM 31.3186 -84.3664 179° South 160 184 8,100  Level Jacksonville Center
08:18AM 31.2747 -84.3631 176° South 160 184 8,100  Level Jacksonville Center
08:19AM 31.2331 -84.3625 179° South 160 184 8,100  Level Jacksonville Center
08:20AM 31.1892 -84.3619 179° South 160 184 8,100  Level Jacksonville Center
08:21AM 31.1456 -84.3611 179° South 160 184 8,100  Level Jacksonville Center
08:22AM 31.1058 -84.3631 182° South 160 184 8,100 -60 Level Jacksonville Center
08:23AM 31.0619 -84.3597 176° South 160 184 8,000 -300 Descending Jacksonville Center
08:24AM 31.0161 -84.3592 179° South 160 184 7,500 -540 Descending Jacksonville Center
08:25AM 30.9700 -84.3583 179° South 160 184 7,000 -600 Descending Jacksonville Center
08:26AM 30.9242 -84.3600 182° South 165 190 6,400 -600 Descending Jacksonville Center
08:27AM 30.8761 -84.3594 179° South 165 190 5,900 -540 Descending Jacksonville Center
08:29AM 30.8060 -84.3560 178° South  Level FlightAware Approximate
08:36AM 30.5250 -84.3500 180° South  Level FlightAware Approximate
08:37AM 30.4849 -84.3500 180° South  Level FlightAware Approximate
08:38AM 30.4447 -84.3500 180° South  Level FlightAware Approximate
08:39AM 30.4046 -84.3500 180° South  Level FlightAware Approximate
08:40AM 30.3967 -84.3509 180° South  Level Estimated
08:41AM 30.3967 -84.3509 180° South  Level Estimated
08:42AM 30.3967 -84.3509 180° South  Level Estimated
08:43AM 30.3967 -84.3509 180° South  Level Estimated
08:44AM 30.3967 -84.3509 180° South  Level Estimated
08:45AM 30.3967 -84.3509 180° South  Level Estimated
08:46AM 30.3967 -84.3509 180° South  Level Estimated
08:47AM 30.3967 -84.3509 180° South  Level Estimated
08:48AM 30.3967 -84.3509 180° South  Level Estimated